createdAt,value
2023-05-15T00:02:22.416Z,4.85
2023-05-15T00:04:50.550Z,5.00
2023-05-15T00:07:17.379Z,4.50
2023-05-15T00:09:44.083Z,4.97
2023-05-15T00:12:10.825Z,4.55
2023-05-15T00:14:37.457Z,4.68
2023-05-15T00:17:04.199Z,4.50
2023-05-15T00:19:30.879Z,4.13
2023-05-15T00:21:57.600Z,4.57
2023-05-15T00:24:24.339Z,4.90
2023-05-15T00:26:51.229Z,4.45
2023-05-15T00:29:17.922Z,5.05
2023-05-15T00:31:45.175Z,4.70
2023-05-15T00:34:11.948Z,4.45
2023-05-15T00:36:38.682Z,4.75
2023-05-15T00:39:05.347Z,5.10
2023-05-15T00:41:33.382Z,4.80
2023-05-15T00:44:02.154Z,4.78
2023-05-15T00:46:31.889Z,5.20
2023-05-15T00:48:59.460Z,5.50
2023-05-15T00:51:27.082Z,5.35
2023-05-15T00:53:54.839Z,4.75
2023-05-15T00:56:22.235Z,5.00
2023-05-15T00:58:50.066Z,5.55
2023-05-15T01:01:18.520Z,5.50
2023-05-15T01:03:46.274Z,5.05
2023-05-15T01:06:13.398Z,5.07
2023-05-15T01:08:46.111Z,5.25
2023-05-15T01:11:14.991Z,5.15
2023-05-15T01:13:41.859Z,4.95
2023-05-15T01:16:09.568Z,5.32
2023-05-15T01:18:37.805Z,5.60
2023-05-15T01:21:29.583Z,5.95
2023-05-15T01:24:25.464Z,5.00
2023-05-15T01:27:20.444Z,5.00
2023-05-15T01:30:08.328Z,5.93
2023-05-15T01:33:03.796Z,6.00
2023-05-15T01:35:43.981Z,5.57
2023-05-15T01:38:23.043Z,5.95
2023-05-15T01:41:02.122Z,6.22
2023-05-15T01:43:31.823Z,5.93
2023-05-15T01:45:59.201Z,5.53
2023-05-15T01:48:27.746Z,6.10
2023-05-15T01:51:03.354Z,5.72
2023-05-15T01:53:33.127Z,6.72
2023-05-15T01:56:00.207Z,6.82
2023-05-15T01:58:28.797Z,5.90
2023-05-15T02:00:56.388Z,6.18
2023-05-15T02:03:24.307Z,6.22
2023-05-15T02:05:53.241Z,7.30
2023-05-15T02:08:21.346Z,6.80
2023-05-15T02:10:49.581Z,6.22
2023-05-15T02:13:19.448Z,6.25
2023-05-15T02:15:46.488Z,6.68
2023-05-15T02:18:14.181Z,6.43
2023-05-15T02:20:41.002Z,6.63
2023-05-15T02:23:07.721Z,6.43
2023-05-15T02:25:44.597Z,5.82
2023-05-15T02:28:32.542Z,6.35
2023-05-15T02:31:05.628Z,5.93
2023-05-15T02:33:50.899Z,6.32
2023-05-15T02:36:27.680Z,6.65
2023-05-15T02:38:55.959Z,6.07
2023-05-15T02:41:23.664Z,7.05
2023-05-15T02:43:52.656Z,7.07
2023-05-15T02:46:21.273Z,7.07
2023-05-15T02:48:48.805Z,5.70
2023-05-15T02:51:15.718Z,6.20
2023-05-15T02:53:43.253Z,7.10
2023-05-15T02:56:10.314Z,6.75
2023-05-15T02:58:38.503Z,6.32
2023-05-15T03:01:05.691Z,6.30
2023-05-15T03:03:32.506Z,7.15
2023-05-15T03:06:00.943Z,6.68
2023-05-15T03:08:28.146Z,6.85
2023-05-15T03:10:54.905Z,5.85
2023-05-15T03:13:21.712Z,7.20
2023-05-15T03:15:48.400Z,5.57
2023-05-15T03:18:17.112Z,5.88
2023-05-15T03:20:45.625Z,5.75
2023-05-15T03:23:12.377Z,6.15
2023-05-15T03:25:39.093Z,6.13
2023-05-15T03:28:05.869Z,5.47
2023-05-15T03:30:32.599Z,6.18
2023-05-15T03:32:59.348Z,7.22
2023-05-15T03:35:27.086Z,6.60
2023-05-15T03:37:53.867Z,7.00
2023-05-15T03:40:20.577Z,6.82
2023-05-15T03:42:47.248Z,7.07
2023-05-15T03:45:14.000Z,7.78
2023-05-15T03:47:41.096Z,6.32
2023-05-15T03:50:08.021Z,7.47
2023-05-15T03:52:34.725Z,7.13
2023-05-15T03:55:02.189Z,6.88
2023-05-15T03:57:28.969Z,7.13
2023-05-15T03:59:55.669Z,6.50
2023-05-15T04:02:22.420Z,7.47
2023-05-15T04:04:49.608Z,7.25
2023-05-15T04:07:16.567Z,7.10
2023-05-15T04:09:43.275Z,7.15
2023-05-15T04:12:09.949Z,7.63
2023-05-15T04:14:36.777Z,6.38
2023-05-15T04:17:03.548Z,7.50
2023-05-15T04:19:30.303Z,7.32
2023-05-15T04:21:57.069Z,7.28
2023-05-15T04:24:23.732Z,6.68
2023-05-15T04:26:50.704Z,7.28
2023-05-15T04:29:19.837Z,7.55
2023-05-15T04:31:46.555Z,7.18
2023-05-15T04:34:13.331Z,6.65
2023-05-15T04:36:40.838Z,7.15
2023-05-15T04:41:59.870Z,7.15
2023-05-15T04:44:26.593Z,6.53
2023-05-15T04:46:53.327Z,7.53
2023-05-15T04:49:20.118Z,7.28
2023-05-15T04:51:46.893Z,7.57
2023-05-15T04:54:13.575Z,6.88
2023-05-15T04:56:40.284Z,7.07
2023-05-15T04:59:07.009Z,7.10
2023-05-15T05:01:33.714Z,7.43
2023-05-15T05:04:00.543Z,7.10
2023-05-15T05:06:29.230Z,7.78
2023-05-15T05:08:57.118Z,7.88
2023-05-15T05:11:23.847Z,7.25
2023-05-15T05:13:51.283Z,6.80
2023-05-15T05:16:18.075Z,6.72
2023-05-15T05:18:44.806Z,7.15
2023-05-15T05:21:11.640Z,6.80
2023-05-15T05:23:38.377Z,6.45
2023-05-15T05:26:06.186Z,6.22
2023-05-15T05:28:32.994Z,6.38
2023-05-15T05:30:59.920Z,5.35
2023-05-15T05:33:27.635Z,5.80
2023-05-15T05:35:55.649Z,6.03
2023-05-15T05:38:22.335Z,6.00
2023-05-15T05:40:49.003Z,5.88
2023-05-15T05:43:15.880Z,5.45
2023-05-15T05:45:42.617Z,5.57
2023-05-15T05:48:09.316Z,5.40
2023-05-15T05:50:36.798Z,6.00
2023-05-15T05:53:03.904Z,4.97
2023-05-15T05:55:30.714Z,5.05
2023-05-15T05:57:57.485Z,5.18
2023-05-15T06:00:24.999Z,5.22
2023-05-15T06:02:58.448Z,5.07
2023-05-15T06:05:26.527Z,6.55
2023-05-15T06:07:54.181Z,5.30
2023-05-15T06:10:21.957Z,5.45
2023-05-15T06:12:48.915Z,5.47
2023-05-15T06:15:16.648Z,4.72
2023-05-15T06:17:43.388Z,4.80
2023-05-15T06:20:10.399Z,4.40
2023-05-15T06:22:37.342Z,4.82
2023-05-15T06:25:07.828Z,5.05
2023-05-15T06:27:34.682Z,5.20
2023-05-15T06:30:01.380Z,4.97
2023-05-15T06:32:28.786Z,5.00
2023-05-15T06:34:55.458Z,5.32
2023-05-15T06:37:22.170Z,5.07
2023-05-15T06:39:48.908Z,5.00
2023-05-15T06:42:15.638Z,5.15
2023-05-15T06:44:42.320Z,5.32
2023-05-15T06:47:09.143Z,5.35
2023-05-15T06:49:35.901Z,4.97
2023-05-15T06:52:02.662Z,5.03
2023-05-15T06:54:29.347Z,4.68
2023-05-15T06:56:55.997Z,5.65
2023-05-15T06:59:22.724Z,5.63
2023-05-15T07:01:49.419Z,5.35
2023-05-15T07:04:16.454Z,5.68
2023-05-15T07:06:43.419Z,5.50
2023-05-15T07:09:10.139Z,5.43
2023-05-15T07:11:38.708Z,5.68
2023-05-15T07:14:06.581Z,5.05
2023-05-15T07:16:33.236Z,5.72
2023-05-15T07:19:00.973Z,5.38
2023-05-15T07:21:27.779Z,5.28
2023-05-15T07:23:54.382Z,5.20
2023-05-15T07:26:31.541Z,5.97
2023-05-15T07:28:59.465Z,5.82
2023-05-15T07:31:26.182Z,6.07
2023-05-15T07:33:52.864Z,5.10
2023-05-15T07:36:20.403Z,5.70
2023-05-15T07:38:47.361Z,5.43
2023-05-15T07:41:14.027Z,5.13
2023-05-15T07:43:40.766Z,5.95
2023-05-15T07:46:07.578Z,5.13
2023-05-15T07:48:34.304Z,4.93
2023-05-15T07:51:00.988Z,6.32
2023-05-15T07:53:27.831Z,5.03
2023-05-15T07:55:55.194Z,5.82
2023-05-15T07:58:23.205Z,5.60
2023-05-15T08:00:49.888Z,5.32
2023-05-15T08:03:17.077Z,5.00
2023-05-15T08:05:43.868Z,5.28
2023-05-15T08:08:10.544Z,4.88
2023-05-15T08:10:37.185Z,4.85
2023-05-15T08:13:03.827Z,5.35
2023-05-15T08:15:30.566Z,4.90
2023-05-15T08:17:57.792Z,5.03
2023-05-15T08:20:24.416Z,4.30
2023-05-15T08:22:51.240Z,4.45
2023-05-15T08:25:18.022Z,4.90
2023-05-15T08:27:44.731Z,4.72
2023-05-15T08:30:12.155Z,4.30
2023-05-15T08:32:38.844Z,4.45
2023-05-15T08:35:06.196Z,4.05
2023-05-15T08:37:33.659Z,4.28
2023-05-15T08:40:00.408Z,5.18
2023-05-15T08:42:44.186Z,5.07
2023-05-15T08:45:12.387Z,5.80
2023-05-15T08:47:40.851Z,5.65
2023-05-15T08:50:10.202Z,6.38
2023-05-15T08:52:41.600Z,6.88
2023-05-15T08:55:10.651Z,6.80
2023-05-15T08:57:38.429Z,7.07
2023-05-15T09:00:09.135Z,6.78
2023-05-15T09:02:39.574Z,6.75
2023-05-15T09:05:07.266Z,5.90
2023-05-15T09:07:34.525Z,5.90
2023-05-15T09:10:03.243Z,5.60
2023-05-15T09:12:36.397Z,5.90
2023-05-15T09:15:15.918Z,5.55
2023-05-15T09:17:43.221Z,6.20
2023-05-15T09:20:31.856Z,6.43
2023-05-15T09:23:00.430Z,6.32
2023-05-15T09:25:42.584Z,6.88
2023-05-15T09:28:11.136Z,7.03
2023-05-15T09:30:39.041Z,7.55
2023-05-15T09:33:06.058Z,7.63
2023-05-15T09:35:35.118Z,7.82
2023-05-15T09:38:07.607Z,6.70
2023-05-15T09:40:34.301Z,7.88
2023-05-15T09:43:01.078Z,7.07
2023-05-15T09:45:29.930Z,8.88
2023-05-15T09:47:59.915Z,7.10
2023-05-15T09:50:35.966Z,7.00
2023-05-15T09:53:04.493Z,7.07
2023-05-15T09:55:36.145Z,7.30
2023-05-15T09:58:09.872Z,8.02
2023-05-15T10:00:48.214Z,7.63
2023-05-15T10:03:19.031Z,7.55
2023-05-15T10:05:46.018Z,6.95
2023-05-15T10:08:16.115Z,6.90
2023-05-15T10:10:43.667Z,6.75
2023-05-15T10:13:11.521Z,7.60
2023-05-15T10:15:39.749Z,6.53
2023-05-15T10:18:14.665Z,6.57
2023-05-15T10:20:41.810Z,6.85
2023-05-15T10:23:12.223Z,7.50
2023-05-15T10:25:59.988Z,6.70
2023-05-15T10:28:28.394Z,6.32
2023-05-15T10:30:59.859Z,7.13
2023-05-15T10:33:27.795Z,7.22
2023-05-15T10:35:58.375Z,6.07
2023-05-15T10:38:26.158Z,6.18
2023-05-15T10:40:59.874Z,6.00
2023-05-15T10:43:30.627Z,6.10
2023-05-15T10:45:58.610Z,5.15
2023-05-15T10:48:26.092Z,4.68
2023-05-15T10:50:52.815Z,4.43
2023-05-15T10:53:20.250Z,5.38
2023-05-15T10:55:49.418Z,4.10
2023-05-15T10:58:16.223Z,5.13
2023-05-15T11:00:45.209Z,4.38
2023-05-15T11:03:16.180Z,4.97
2023-05-15T11:06:12.884Z,4.25
2023-05-15T11:08:41.561Z,5.03
2023-05-15T11:11:08.359Z,4.45
2023-05-15T11:14:07.833Z,4.65
2023-05-15T11:16:53.190Z,2.95
2023-05-15T11:19:29.104Z,4.45
2023-05-15T11:22:15.998Z,3.67
2023-05-15T11:24:49.758Z,4.60
2023-05-15T11:27:26.048Z,3.63
2023-05-15T11:30:09.500Z,4.65
2023-05-15T11:32:45.528Z,4.55
2023-05-15T11:35:13.185Z,5.38
2023-05-15T11:37:45.434Z,5.38
2023-05-15T11:40:46.709Z,4.38
2023-05-15T11:43:25.085Z,4.70
2023-05-15T11:45:55.968Z,4.15
2023-05-15T11:48:24.991Z,5.00
2023-05-15T11:50:54.818Z,5.03
2023-05-15T11:53:23.951Z,4.78
2023-05-15T11:55:54.107Z,4.15
2023-05-15T11:58:22.678Z,5.03
2023-05-15T12:00:51.432Z,5.10
2023-05-15T12:03:24.271Z,6.30
2023-05-15T12:05:59.429Z,6.22
2023-05-15T12:08:33.387Z,7.32
2023-05-15T12:11:01.117Z,8.82
2023-05-15T12:13:28.629Z,8.85
2023-05-15T12:15:56.934Z,8.93
2023-05-15T12:18:24.157Z,6.15
2023-05-15T12:20:54.871Z,6.88
2023-05-15T12:23:23.284Z,8.02
2023-05-15T12:25:55.056Z,8.02
2023-05-15T12:30:49.242Z,8.77
2023-05-15T12:33:16.225Z,10.02
2023-05-15T12:35:49.762Z,9.75
2023-05-15T12:38:16.676Z,8.57
2023-05-15T12:40:45.253Z,9.23
2023-05-15T12:43:13.289Z,9.95
2023-05-15T12:45:40.710Z,8.32
2023-05-15T12:48:08.050Z,9.38
2023-05-15T12:50:35.864Z,7.88
2023-05-15T12:53:04.301Z,8.55
2023-05-15T12:55:36.036Z,8.23
2023-05-15T12:58:09.286Z,8.07
2023-05-15T13:00:38.636Z,7.68
2023-05-15T13:03:06.067Z,6.05
2023-05-15T13:05:34.183Z,6.32
2023-05-15T13:08:03.006Z,4.72
2023-05-15T13:10:33.190Z,4.15
2023-05-15T13:13:00.169Z,4.93
2023-05-15T13:15:43.022Z,6.25
2023-05-15T13:18:14.859Z,6.03
2023-05-15T13:20:47.012Z,5.45
2023-05-15T13:23:19.718Z,4.22
2023-05-15T13:25:46.707Z,5.10
2023-05-15T13:28:13.689Z,4.90
2023-05-15T13:30:44.337Z,5.28
2023-05-15T13:33:12.590Z,5.93
2023-05-15T13:35:41.175Z,6.50
2023-05-15T13:38:11.180Z,7.03
2023-05-15T13:40:38.716Z,5.97
2023-05-15T13:43:08.308Z,5.63
2023-05-15T13:45:37.281Z,5.03
2023-05-15T13:48:04.344Z,5.65
2023-05-15T13:50:31.090Z,4.63
2023-05-15T13:52:57.834Z,4.78
2023-05-15T13:55:26.038Z,4.57
2023-05-15T13:57:53.435Z,4.63
2023-05-15T14:00:20.797Z,5.88
2023-05-15T14:02:48.917Z,5.47
2023-05-15T14:05:16.849Z,4.72
2023-05-15T14:07:43.696Z,5.03
2023-05-15T14:10:13.877Z,4.38
2023-05-15T14:12:40.638Z,4.90
2023-05-15T14:15:07.859Z,4.65
2023-05-15T14:17:35.006Z,3.95
2023-05-15T14:20:02.187Z,3.97
2023-05-15T14:22:29.005Z,4.82
2023-05-15T14:24:55.687Z,4.10
2023-05-15T14:27:22.376Z,4.85
2023-05-15T14:29:49.447Z,5.68
2023-05-15T14:32:16.915Z,4.55
2023-05-15T14:34:44.260Z,4.90
2023-05-15T14:37:10.950Z,4.38
2023-05-15T14:39:37.705Z,4.93
2023-05-15T14:42:04.758Z,5.30
2023-05-15T14:44:31.580Z,5.03
2023-05-15T14:47:08.702Z,5.75
2023-05-15T14:49:36.756Z,5.20
2023-05-15T14:52:05.533Z,5.22
2023-05-15T14:54:33.096Z,4.68
2023-05-15T14:57:00.072Z,4.55
2023-05-15T14:59:28.352Z,4.55
2023-05-15T15:01:55.094Z,4.43
2023-05-15T15:04:22.033Z,5.00
2023-05-15T15:06:48.807Z,5.07
2023-05-15T15:09:15.589Z,5.22
2023-05-15T15:11:42.357Z,5.78
2023-05-15T15:14:09.051Z,4.90
2023-05-15T15:16:35.897Z,5.75
2023-05-15T15:19:02.758Z,6.25
2023-05-15T15:21:29.464Z,6.72
2023-05-15T15:23:57.194Z,6.47
2023-05-15T15:26:23.825Z,6.50
2023-05-15T15:28:50.577Z,5.95
2023-05-15T15:31:17.327Z,4.72
2023-05-15T15:33:45.168Z,5.88
2023-05-15T15:36:11.846Z,6.32
2023-05-15T15:38:41.639Z,6.32
2023-05-15T15:41:08.949Z,5.03
2023-05-15T15:43:35.628Z,5.72
2023-05-15T15:46:02.333Z,6.47
2023-05-15T15:48:29.328Z,5.28
2023-05-15T15:50:57.030Z,5.80
2023-05-15T15:53:23.808Z,5.97
2023-05-15T15:55:50.482Z,5.70
2023-05-15T15:58:19.649Z,5.63
2023-05-15T16:00:46.632Z,6.70
2023-05-15T16:03:13.382Z,6.05
2023-05-15T16:05:40.318Z,5.38
2023-05-15T16:08:07.035Z,5.63
2023-05-15T16:10:33.718Z,4.90
2023-05-15T16:13:00.477Z,5.03
2023-05-15T16:15:27.747Z,4.63
2023-05-15T16:17:55.210Z,5.00
2023-05-15T16:20:22.866Z,4.05
2023-05-15T16:22:50.055Z,4.28
2023-05-15T16:25:17.600Z,4.05
2023-05-15T16:27:44.628Z,4.30
2023-05-15T16:30:12.099Z,3.72
2023-05-15T16:32:39.734Z,3.92
2023-05-15T16:35:07.684Z,4.13
2023-05-15T16:37:34.419Z,3.90
2023-05-15T16:40:01.134Z,3.50
2023-05-15T16:42:28.394Z,3.17
2023-05-15T16:44:55.005Z,2.78
2023-05-15T16:47:21.723Z,2.95
2023-05-15T16:49:50.172Z,3.03
2023-05-15T16:52:17.322Z,2.70
2023-05-15T16:54:43.982Z,2.70
2023-05-15T16:57:10.690Z,2.20
2023-05-15T16:59:37.628Z,3.08
2023-05-15T17:02:04.631Z,2.22
2023-05-15T17:04:34.909Z,2.08
2023-05-15T17:07:02.172Z,2.38
2023-05-15T17:09:28.903Z,2.50
2023-05-15T17:11:55.638Z,2.55
2023-05-15T17:14:22.571Z,2.58
2023-05-15T17:16:49.270Z,2.15
2023-05-15T17:19:16.426Z,2.35
2023-05-15T17:21:44.567Z,2.22
2023-05-15T17:24:11.318Z,2.20
2023-05-15T17:26:37.973Z,2.47
2023-05-15T17:29:04.829Z,2.35
2023-05-15T17:31:33.320Z,2.65
2023-05-15T17:34:00.724Z,1.90
2023-05-15T17:36:27.651Z,2.13
2023-05-15T17:38:54.279Z,2.10
2023-05-15T17:41:22.001Z,1.95
2023-05-15T17:43:49.378Z,1.80
2023-05-15T17:46:16.194Z,2.45
2023-05-15T17:48:42.853Z,2.20
2023-05-15T17:51:09.528Z,1.95
2023-05-15T17:53:36.197Z,2.08
2023-05-15T17:56:03.712Z,2.40
2023-05-15T17:58:30.517Z,2.85
2023-05-15T18:00:57.214Z,2.60
2023-05-15T18:03:24.103Z,2.47
2023-05-15T18:05:51.928Z,2.22
2023-05-15T18:08:18.801Z,2.30
2023-05-15T18:10:46.025Z,2.42
2023-05-15T18:13:12.989Z,2.03
2023-05-15T18:15:40.838Z,2.70
2023-05-15T18:18:07.901Z,2.65
2023-05-15T18:20:34.699Z,2.40
2023-05-15T18:23:02.265Z,2.70
2023-05-15T18:25:29.044Z,3.92
2023-05-15T18:27:55.793Z,2.50
2023-05-15T18:30:22.466Z,2.72
2023-05-15T18:32:49.117Z,2.35
2023-05-15T18:35:15.832Z,2.45
2023-05-15T18:37:42.493Z,2.15
2023-05-15T18:40:09.941Z,2.65
2023-05-15T18:42:36.618Z,2.88
2023-05-15T18:45:03.437Z,3.00
2023-05-15T18:47:30.191Z,3.17
2023-05-15T18:49:57.085Z,3.00
2023-05-15T18:52:23.836Z,3.03
2023-05-15T18:54:52.169Z,3.35
2023-05-15T18:57:18.903Z,2.90
2023-05-15T18:59:45.705Z,3.00
2023-05-15T19:02:13.160Z,2.45
2023-05-15T19:04:40.018Z,2.70
2023-05-15T19:07:07.701Z,2.25
2023-05-15T19:09:35.339Z,2.30
2023-05-15T19:12:02.949Z,2.38
2023-05-15T19:14:29.646Z,2.17
2023-05-15T19:16:56.750Z,2.47
2023-05-15T19:19:23.774Z,2.78
2023-05-15T19:21:51.856Z,2.45
2023-05-15T19:24:18.931Z,3.40
2023-05-15T19:26:47.096Z,2.97
2023-05-15T19:29:13.922Z,3.63
2023-05-15T19:31:41.481Z,3.80
2023-05-15T19:34:08.222Z,3.90
2023-05-15T19:36:35.096Z,3.88
2023-05-15T19:39:02.246Z,3.55
2023-05-15T19:41:28.935Z,4.93
2023-05-15T19:43:55.805Z,4.53
2023-05-15T19:46:22.521Z,4.38
2023-05-15T19:48:49.223Z,4.30
2023-05-15T19:51:16.374Z,4.78
2023-05-15T19:53:43.687Z,4.72
2023-05-15T19:56:10.410Z,4.75
2023-05-15T19:58:37.310Z,5.43
2023-05-15T20:01:04.198Z,5.93
2023-05-15T20:03:33.918Z,6.00
2023-05-15T20:06:02.494Z,5.25
2023-05-15T20:08:29.505Z,5.53
2023-05-15T20:10:56.918Z,5.43
2023-05-15T20:13:23.872Z,6.35
2023-05-15T20:15:58.129Z,5.93
2023-05-15T20:18:26.384Z,5.97
2023-05-15T20:20:53.481Z,6.50
2023-05-15T20:23:20.848Z,5.85
2023-05-15T20:25:49.532Z,6.45
2023-05-15T20:28:17.597Z,5.95
2023-05-15T20:30:47.111Z,5.90
2023-05-15T20:33:14.035Z,6.28
2023-05-15T20:35:40.767Z,6.85
2023-05-15T20:38:07.464Z,5.97
2023-05-15T20:40:34.129Z,6.03
2023-05-15T20:43:01.425Z,6.07
2023-05-15T20:45:28.256Z,6.80
2023-05-15T20:47:55.142Z,6.68
2023-05-15T20:50:22.104Z,6.63
2023-05-15T20:52:49.757Z,6.65
2023-05-15T20:55:17.120Z,7.35
2023-05-15T20:57:44.767Z,6.88
2023-05-15T21:00:14.143Z,7.00
2023-05-15T21:02:41.046Z,6.15
2023-05-15T21:05:08.981Z,7.45
2023-05-15T21:07:36.148Z,6.70
2023-05-15T21:10:03.333Z,7.53
2023-05-15T21:12:32.169Z,6.50
2023-05-15T21:14:58.845Z,6.40
2023-05-15T21:17:25.599Z,7.38
2023-05-15T21:19:52.291Z,6.55
2023-05-15T21:22:18.975Z,6.43
2023-05-15T21:24:46.210Z,7.35
2023-05-15T21:27:12.884Z,6.72
2023-05-15T21:29:39.587Z,7.05
2023-05-15T21:32:06.783Z,6.57
2023-05-15T21:34:33.477Z,6.38
2023-05-15T21:37:00.174Z,6.40
2023-05-15T21:39:27.645Z,6.57
2023-05-15T21:41:54.326Z,7.03
2023-05-15T21:44:21.511Z,7.13
2023-05-15T21:46:48.183Z,7.38
2023-05-15T21:49:14.885Z,6.90
2023-05-15T21:51:41.662Z,6.55
2023-05-15T21:54:08.374Z,7.10
2023-05-15T21:56:35.981Z,6.88
2023-05-15T21:59:02.870Z,6.88
2023-05-15T22:01:29.783Z,6.68
2023-05-15T22:03:56.497Z,6.72
2023-05-15T22:06:23.344Z,6.43
2023-05-15T22:08:50.061Z,6.57
2023-05-15T22:11:17.159Z,6.88
2023-05-15T22:13:43.913Z,6.53
2023-05-15T22:16:10.763Z,6.28
2023-05-15T22:18:37.738Z,6.22
2023-05-15T22:21:04.593Z,6.80
2023-05-15T22:23:32.161Z,7.13
2023-05-15T22:25:58.868Z,6.22
2023-05-15T22:28:25.525Z,6.88
2023-05-15T22:30:52.228Z,7.45
2023-05-15T22:33:23.938Z,6.88
2023-05-15T22:35:53.951Z,7.43
2023-05-15T22:38:20.936Z,6.50
2023-05-15T22:40:51.984Z,7.13
2023-05-15T22:43:18.842Z,7.63
2023-05-15T22:45:45.630Z,7.35
2023-05-15T22:48:12.489Z,7.82
2023-05-15T22:50:39.219Z,6.68
2023-05-15T22:53:05.884Z,7.63
2023-05-15T22:55:32.603Z,7.28
2023-05-15T22:58:00.487Z,7.55
2023-05-15T23:00:27.930Z,7.15
2023-05-15T23:02:55.435Z,8.05
2023-05-15T23:05:23.498Z,7.45
2023-05-15T23:07:50.492Z,8.77
2023-05-15T23:10:17.254Z,7.63
2023-05-15T23:12:43.957Z,8.00
2023-05-15T23:15:10.970Z,7.43
2023-05-15T23:17:37.692Z,7.47
2023-05-15T23:20:06.791Z,7.60
2023-05-15T23:22:33.631Z,6.30
2023-05-15T23:25:00.750Z,5.63
2023-05-15T23:27:27.753Z,5.95
2023-05-15T23:29:54.544Z,5.30
2023-05-15T23:32:21.418Z,5.90
2023-05-15T23:34:48.086Z,5.57
2023-05-15T23:37:16.531Z,5.68
2023-05-15T23:39:43.155Z,5.80
2023-05-15T23:42:11.687Z,5.93
2023-05-15T23:44:38.472Z,5.45
2023-05-15T23:47:05.323Z,5.05
2023-05-15T23:49:33.407Z,5.80
2023-05-15T23:52:00.529Z,6.00
2023-05-15T23:54:27.942Z,6.20
2023-05-15T23:56:54.885Z,5.63
2023-05-15T23:59:21.728Z,5.75
